KNLC/NLC METAR and TAF weather

Enter ICAO airport designator
Station Type Date Time Source
KNLC METAR 2018/12/13 19:56 UTC NOAA

KNLC 131956Z 19003KT 5SM HZ CLR 12/06 A3029 RMK AO2 SLP258 RH/68 T01220061


Station Type Date Time Source
KNLC Decoded METAR 2018/12/13 19:56 UTC NOAA

LEMOORE NAVAL AIR STATION, CA, United States (KNLC) 36-20N 119-57W 72M
Dec 13, 2018 - 02:56 PM EST / 2018.12.13 1956 UTC
Wind: from the S (190 degrees) at 3 MPH (3 KT):0
Visibility: 5 mile(s):0
Sky conditions: clear
Weather: haze
Temperature: 54.0 F (12.2 C)
Dew Point: 43.0 F (6.1 C)
Relative Humidity: 66%
Pressure (altimeter): 30.29 in. Hg (1025 hPa)
ob: KNLC 131956Z 19003KT 5SM HZ CLR 12/06 A3029 RMK AO2 SLP258 RH/68 T01220061
cycle: 20

Station Type Date Time Source
KNLC TAF 2018/12/13 15:12 UTC NOAA

TAF TAF KNLC 1315/1415 VRB06KT 3200 BR FEW005 SCT200 QNH3025INS
BECMG 1317/1318 VRB06KT 9000 HZ SCT030 SCT200 QNH3018INS
FM140300 VRB05KT 8000 BR FEW150 SCT200 QNH3016INS
FM140800 VRB05KT 3200 BR BKN150 BKN200 QNH3014INS T13/1323Z T02/1413Z FS30137


Example: see airport list